createdAt,value
2018-07-08T00:02:06.996Z,16.06
2018-07-08T00:05:11.935Z,16.14
2018-07-08T00:08:16.261Z,16.06
2018-07-08T00:11:20.616Z,16.10
2018-07-08T00:14:25.019Z,16.09
2018-07-08T00:17:29.396Z,16.11
2018-07-08T00:20:33.698Z,16.03
2018-07-08T00:23:38.190Z,16.03
2018-07-08T00:26:42.626Z,16.01
2018-07-08T00:29:47.026Z,15.97
2018-07-08T00:32:51.666Z,15.92
2018-07-08T00:35:56.033Z,15.89
2018-07-08T00:39:00.310Z,15.91
2018-07-08T00:42:04.617Z,15.78
2018-07-08T00:45:08.903Z,15.72
2018-07-08T00:48:13.320Z,15.67
2018-07-08T00:51:17.675Z,15.56
2018-07-08T00:54:22.081Z,15.56
2018-07-08T00:57:26.399Z,15.54
2018-07-08T01:00:38.956Z,15.45
2018-07-08T01:03:43.257Z,15.36
2018-07-08T01:06:47.731Z,15.39
2018-07-08T01:09:52.171Z,15.30
2018-07-08T01:12:56.624Z,15.39
2018-07-08T01:16:00.974Z,15.35
2018-07-08T01:19:06.052Z,15.29
2018-07-08T01:22:10.373Z,15.33
2018-07-08T01:25:16.882Z,15.32
2018-07-08T01:28:21.295Z,15.31
2018-07-08T01:31:27.066Z,15.28
2018-07-08T01:34:31.374Z,15.30
2018-07-08T01:37:35.935Z,15.31
2018-07-08T01:40:40.369Z,15.34
2018-07-08T01:43:44.694Z,15.37
2018-07-08T01:46:48.968Z,15.40
2018-07-08T01:49:53.498Z,15.40
2018-07-08T01:52:57.791Z,15.38
2018-07-08T01:56:02.264Z,15.41
2018-07-08T01:59:06.305Z,15.33
2018-07-08T02:02:10.585Z,15.26
2018-07-08T02:05:14.846Z,15.28
2018-07-08T02:08:19.256Z,15.24
2018-07-08T02:11:24.665Z,15.25
2018-07-08T02:14:29.830Z,15.23
2018-07-08T02:17:34.390Z,15.25
2018-07-08T02:20:38.996Z,15.28
2018-07-08T02:23:43.300Z,15.33
2018-07-08T02:26:49.231Z,15.30
2018-07-08T02:29:53.769Z,15.33
2018-07-08T02:32:58.082Z,15.30
2018-07-08T02:36:02.721Z,15.28
2018-07-08T02:39:08.219Z,15.19
2018-07-08T02:42:12.693Z,15.17
2018-07-08T02:45:17.581Z,15.16
2018-07-08T02:48:21.957Z,15.13
2018-07-08T02:51:26.978Z,15.06
2018-07-08T02:54:31.428Z,15.15
2018-07-08T02:57:35.742Z,15.21
2018-07-08T03:00:40.090Z,15.25
2018-07-08T03:03:45.156Z,15.23
2018-07-08T03:06:49.844Z,15.28
2018-07-08T03:09:54.183Z,15.32
2018-07-08T03:12:58.509Z,15.32
2018-07-08T03:16:02.866Z,15.28
2018-07-08T03:19:07.254Z,15.29
2018-07-08T03:22:11.727Z,15.31
2018-07-08T03:25:16.423Z,15.24
2018-07-08T03:28:20.746Z,15.23
2018-07-08T03:31:25.162Z,14.98
2018-07-08T03:34:29.533Z,14.96
2018-07-08T03:37:33.822Z,14.88
2018-07-08T03:40:38.204Z,14.95
2018-07-08T03:43:42.523Z,14.96
2018-07-08T03:46:46.847Z,14.86
2018-07-08T03:49:51.457Z,14.97
2018-07-08T03:52:55.942Z,15.06
2018-07-08T03:56:00.225Z,15.09
2018-07-08T03:59:04.823Z,15.07
2018-07-08T04:02:09.148Z,15.09
2018-07-08T04:05:13.800Z,15.18
2018-07-08T04:08:18.319Z,15.09
2018-07-08T04:11:22.803Z,15.31
2018-07-08T04:14:28.201Z,15.48
2018-07-08T04:17:33.743Z,15.71
2018-07-08T04:20:39.101Z,15.58
2018-07-08T04:23:43.562Z,15.80
2018-07-08T04:26:48.098Z,16.10
2018-07-08T04:29:53.221Z,16.35
2018-07-08T04:32:58.481Z,16.71
2018-07-08T04:36:03.088Z,16.94
2018-07-08T04:39:08.728Z,16.94
2018-07-08T04:42:13.420Z,16.97
2018-07-08T04:45:18.208Z,16.80
2018-07-08T04:48:23.133Z,16.77
2018-07-08T04:51:27.840Z,16.91
2018-07-08T04:54:32.492Z,16.81
2018-07-08T04:57:37.334Z,16.95
2018-07-08T05:00:42.220Z,17.02
2018-07-08T05:03:46.846Z,17.17
2018-07-08T05:06:51.333Z,17.36
2018-07-08T05:09:57.512Z,17.50
2018-07-08T05:13:01.980Z,17.54
2018-07-08T05:16:06.688Z,17.68
2018-07-08T05:19:11.295Z,18.03
2018-07-08T05:22:15.994Z,18.20
2018-07-08T05:25:20.329Z,18.41
2018-07-08T05:28:24.745Z,18.49
2018-07-08T05:31:29.055Z,18.42
2018-07-08T05:34:34.260Z,18.27
2018-07-08T05:37:38.789Z,18.19
2018-07-08T05:40:43.133Z,18.30
2018-07-08T05:43:47.561Z,18.28
2018-07-08T05:46:51.857Z,18.70
2018-07-08T05:49:56.990Z,18.68
2018-07-08T05:53:01.395Z,18.81
2018-07-08T05:56:06.386Z,19.01
2018-07-08T05:59:10.923Z,18.85
2018-07-08T06:02:15.789Z,18.93
2018-07-08T06:05:20.214Z,19.27
2018-07-08T06:08:24.708Z,19.15
2018-07-08T06:11:29.210Z,19.42
2018-07-08T06:14:33.615Z,19.76
2018-07-08T06:17:38.240Z,20.11
2018-07-08T06:20:42.631Z,19.96
2018-07-08T06:23:46.939Z,20.64
2018-07-08T06:26:51.245Z,20.01
2018-07-08T06:29:55.572Z,20.91
2018-07-08T06:33:00.074Z,21.18
2018-07-08T06:36:04.642Z,22.07
2018-07-08T06:39:09.398Z,22.04
2018-07-08T06:42:13.716Z,21.56
2018-07-08T06:45:17.997Z,21.43
2018-07-08T06:48:22.843Z,21.76
2018-07-08T06:51:27.149Z,21.73
2018-07-08T06:54:31.220Z,21.68
2018-07-08T06:57:35.696Z,21.55
2018-07-08T07:00:39.831Z,21.91
2018-07-08T07:03:44.350Z,22.19
2018-07-08T07:06:48.948Z,22.48
2018-07-08T07:09:53.400Z,23.05
2018-07-08T07:12:57.727Z,22.86
2018-07-08T07:16:02.313Z,22.61
2018-07-08T07:19:07.392Z,22.38
2018-07-08T07:22:11.697Z,22.21
2018-07-08T07:25:16.909Z,23.25
2018-07-08T07:28:21.405Z,23.34
2018-07-08T07:31:27.908Z,23.93
2018-07-08T07:34:32.470Z,23.79
2018-07-08T07:37:36.905Z,24.09
2018-07-08T07:40:41.333Z,24.02
2018-07-08T07:43:45.688Z,23.98
2018-07-08T07:46:50.258Z,24.01
2018-07-08T07:49:54.576Z,23.97
2018-07-08T07:52:59.012Z,24.26
2018-07-08T07:56:03.409Z,24.96
2018-07-08T07:59:07.894Z,23.82
2018-07-08T08:02:12.336Z,23.59
2018-07-08T08:05:16.845Z,22.39
2018-07-08T08:08:21.262Z,21.87
2018-07-08T08:11:26.826Z,21.59
2018-07-08T08:14:31.729Z,22.08
2018-07-08T08:17:36.465Z,23.16
2018-07-08T08:20:40.956Z,21.84
2018-07-08T08:23:45.348Z,21.93
2018-07-08T08:26:50.241Z,22.10
2018-07-08T08:29:55.573Z,22.31
2018-07-08T08:32:59.963Z,23.06
2018-07-08T08:36:04.287Z,22.16
2018-07-08T08:39:08.994Z,22.79
2018-07-08T08:42:13.796Z,23.57
2018-07-08T08:45:19.573Z,24.11
2018-07-08T08:48:24.142Z,23.88
2018-07-08T08:51:28.784Z,22.89
2018-07-08T08:54:33.155Z,23.24
2018-07-08T08:57:37.902Z,23.56
2018-07-08T09:00:44.920Z,22.84
2018-07-08T09:03:49.306Z,22.64
2018-07-08T09:06:54.212Z,22.69
2018-07-08T09:10:08.510Z,22.59
2018-07-08T09:13:12.997Z,23.03
2018-07-08T09:16:20.457Z,22.91
2018-07-08T09:19:24.956Z,23.59
2018-07-08T09:22:29.465Z,23.62
2018-07-08T09:25:34.138Z,23.02
2018-07-08T09:28:38.432Z,22.98
2018-07-08T09:31:42.884Z,23.23
2018-07-08T09:34:47.232Z,23.14
2018-07-08T09:37:51.586Z,24.04
2018-07-08T09:40:55.918Z,22.75
2018-07-08T09:44:00.340Z,22.79
2018-07-08T09:47:04.844Z,22.88
2018-07-08T09:50:09.177Z,22.27
2018-07-08T09:53:13.877Z,22.50
2018-07-08T09:56:18.762Z,22.47
2018-07-08T09:59:24.957Z,22.54
2018-07-08T10:02:29.344Z,23.19
2018-07-08T10:05:34.184Z,22.93
2018-07-08T10:08:39.359Z,22.82
2018-07-08T10:11:43.834Z,22.91
2018-07-08T10:14:48.311Z,22.72
2018-07-08T10:17:52.954Z,22.87
2018-07-08T10:20:57.749Z,22.38
2018-07-08T10:24:02.340Z,22.61
2018-07-08T10:27:25.025Z,22.59
2018-07-08T10:30:29.720Z,23.11
2018-07-08T10:33:49.701Z,22.62
2018-07-08T10:36:54.114Z,22.71
2018-07-08T10:39:58.541Z,22.59
2018-07-08T10:43:03.869Z,22.87
2018-07-08T10:46:08.137Z,22.95
2018-07-08T10:49:12.442Z,23.47
2018-07-08T10:52:17.154Z,23.51
2018-07-08T10:55:21.262Z,23.80
2018-07-08T10:58:25.524Z,23.66
2018-07-08T11:01:30.147Z,23.48
2018-07-08T11:04:35.280Z,23.67
2018-07-08T11:07:40.780Z,22.97
2018-07-08T11:10:45.600Z,22.59
2018-07-08T11:13:49.953Z,22.54
2018-07-08T11:16:54.258Z,23.15
2018-07-08T11:19:58.753Z,22.73
2018-07-08T11:23:03.052Z,22.51
2018-07-08T11:26:07.790Z,22.66
2018-07-08T11:29:12.105Z,22.56
2018-07-08T11:32:16.404Z,22.69
2018-07-08T11:35:20.685Z,23.12
2018-07-08T11:38:24.964Z,23.26
2018-07-08T11:41:29.529Z,23.48
2018-07-08T11:44:33.808Z,23.66
2018-07-08T11:47:38.464Z,23.66
2018-07-08T11:50:42.793Z,24.21
2018-07-08T11:53:47.264Z,23.72
2018-07-08T11:56:51.624Z,23.83
2018-07-08T11:59:56.012Z,23.65
2018-07-08T12:03:00.097Z,23.34
2018-07-08T12:06:04.439Z,23.68
2018-07-08T12:09:09.045Z,23.76
2018-07-08T12:12:14.404Z,23.87
2018-07-08T12:15:18.704Z,23.96
2018-07-08T12:18:23.101Z,24.52
2018-07-08T12:21:28.095Z,23.90
2018-07-08T12:24:32.483Z,24.04
2018-07-08T12:27:36.962Z,24.55
2018-07-08T12:30:41.309Z,24.29
2018-07-08T12:33:45.678Z,23.56
2018-07-08T12:36:50.073Z,23.48
2018-07-08T12:39:55.518Z,24.10
2018-07-08T12:42:59.851Z,23.93
2018-07-08T12:46:04.395Z,23.28
2018-07-08T12:49:08.857Z,23.40
2018-07-08T12:52:14.379Z,23.70
2018-07-08T12:55:18.747Z,23.68
2018-07-08T12:58:23.083Z,23.49
2018-07-08T13:01:27.696Z,23.65
2018-07-08T13:04:32.034Z,24.27
2018-07-08T13:07:36.412Z,24.53
2018-07-08T13:10:41.452Z,24.13
2018-07-08T13:13:45.804Z,24.57
2018-07-08T13:16:50.181Z,24.56
2018-07-08T13:19:57.256Z,24.24
2018-07-08T13:23:01.558Z,24.26
2018-07-08T13:26:05.980Z,24.44
2018-07-08T13:29:10.445Z,24.39
2018-07-08T13:32:15.169Z,24.89
2018-07-08T13:35:19.413Z,24.71
2018-07-08T13:38:23.803Z,24.16
2018-07-08T13:41:28.364Z,23.59
2018-07-08T13:44:32.626Z,23.53
2018-07-08T13:47:36.954Z,23.43
2018-07-08T13:50:41.733Z,23.45
2018-07-08T13:53:46.045Z,23.61
2018-07-08T13:56:50.642Z,23.76
2018-07-08T13:59:54.935Z,24.00
2018-07-08T14:02:59.208Z,24.04
2018-07-08T14:06:03.577Z,24.08
2018-07-08T14:09:08.443Z,24.03
2018-07-08T14:12:12.730Z,24.07
2018-07-08T14:15:17.034Z,24.23
2018-07-08T14:18:21.346Z,24.22
2018-07-08T14:21:25.889Z,24.36
2018-07-08T14:24:30.214Z,24.36
2018-07-08T14:27:34.536Z,24.04
2018-07-08T14:30:38.809Z,24.53
2018-07-08T14:33:43.085Z,24.56
2018-07-08T14:36:48.051Z,24.18
2018-07-08T14:39:52.341Z,24.33
2018-07-08T14:42:56.673Z,24.50
2018-07-08T14:46:02.132Z,24.42
2018-07-08T14:49:06.422Z,24.39
2018-07-08T14:52:10.672Z,24.33
2018-07-08T14:55:14.996Z,24.13
2018-07-08T14:58:19.314Z,24.13
2018-07-08T15:01:24.034Z,23.72
2018-07-08T15:04:28.575Z,23.62
2018-07-08T15:07:32.942Z,24.13
2018-07-08T15:10:37.263Z,23.70
2018-07-08T15:13:41.633Z,23.48
2018-07-08T15:16:46.071Z,23.50
2018-07-08T15:19:50.473Z,23.65
2018-07-08T15:22:54.986Z,23.98
2018-07-08T15:25:59.348Z,24.06
2018-07-08T15:29:03.676Z,23.90
2018-07-08T15:32:07.934Z,24.20
2018-07-08T15:35:12.430Z,24.19
2018-07-08T15:38:16.734Z,24.15
2018-07-08T15:41:21.031Z,24.35
2018-07-08T15:44:25.364Z,23.81
2018-07-08T15:47:29.679Z,23.66
2018-07-08T15:50:33.965Z,23.71
2018-07-08T15:53:39.023Z,23.62
2018-07-08T15:56:43.301Z,23.35
2018-07-08T15:59:47.660Z,23.16
2018-07-08T16:02:52.006Z,23.41
2018-07-08T16:05:56.315Z,23.65
2018-07-08T16:09:00.731Z,23.80
2018-07-08T16:12:05.279Z,23.84
2018-07-08T16:15:09.863Z,23.83
2018-07-08T16:18:14.350Z,23.73
2018-07-08T16:21:18.609Z,23.83
2018-07-08T16:24:23.039Z,23.88
2018-07-08T16:27:27.409Z,24.01
2018-07-08T16:30:31.789Z,23.98
2018-07-08T16:33:36.323Z,23.97
2018-07-08T16:36:40.860Z,23.96
2018-07-08T16:39:45.215Z,23.99
2018-07-08T16:42:49.516Z,24.11
2018-07-08T16:45:53.885Z,23.87
2018-07-08T16:48:58.244Z,24.03
2018-07-08T16:52:02.680Z,24.90
2018-07-08T16:55:07.079Z,25.79
2018-07-08T16:58:11.541Z,25.33
2018-07-08T17:01:15.856Z,24.87
2018-07-08T17:04:20.139Z,24.51
2018-07-08T17:07:24.477Z,24.38
2018-07-08T17:10:28.853Z,24.04
2018-07-08T17:13:33.998Z,23.83
2018-07-08T17:16:38.422Z,23.91
2018-07-08T17:19:43.534Z,23.86
2018-07-08T17:22:48.634Z,23.79
2018-07-08T17:25:53.338Z,23.64
2018-07-08T17:28:57.641Z,23.61
2018-07-08T17:32:02.342Z,23.26
2018-07-08T17:35:07.065Z,23.07
2018-07-08T17:38:11.380Z,22.92
2018-07-08T17:41:15.640Z,22.85
2018-07-08T17:44:20.292Z,22.61
2018-07-08T17:47:24.796Z,22.56
2018-07-08T17:50:29.243Z,22.40
2018-07-08T17:53:33.848Z,22.39
2018-07-08T17:56:38.831Z,22.43
2018-07-08T17:59:43.293Z,22.35
2018-07-08T18:02:47.737Z,22.41
2018-07-08T18:05:52.328Z,22.31
2018-07-08T18:08:56.735Z,22.21
2018-07-08T18:12:01.289Z,22.20
2018-07-08T18:15:05.893Z,22.07
2018-07-08T18:18:10.361Z,21.95
2018-07-08T18:21:16.223Z,21.87
2018-07-08T18:24:20.786Z,21.75
2018-07-08T18:27:25.152Z,21.69
2018-07-08T18:30:29.642Z,21.54
2018-07-08T18:33:34.086Z,21.49
2018-07-08T18:36:39.008Z,21.43
2018-07-08T18:39:44.711Z,21.38
2018-07-08T18:42:49.242Z,21.40
2018-07-08T18:45:54.132Z,21.31
2018-07-08T18:48:58.828Z,21.31
2018-07-08T18:52:03.236Z,21.33
2018-07-08T18:55:07.996Z,21.31
2018-07-08T18:58:12.416Z,21.31
2018-07-08T19:01:17.633Z,21.32
2018-07-08T19:04:22.075Z,21.24
2018-07-08T19:07:26.556Z,21.12
2018-07-08T19:10:31.057Z,21.02
2018-07-08T19:13:35.709Z,20.98
2018-07-08T19:16:41.117Z,20.86
2018-07-08T19:19:45.561Z,20.73
2018-07-08T19:22:50.281Z,20.62
2018-07-08T19:25:54.646Z,20.48
2018-07-08T19:28:59.070Z,20.27
2018-07-08T19:32:03.734Z,20.20
2018-07-08T19:35:08.023Z,20.15
2018-07-08T19:38:12.384Z,20.09
2018-07-08T19:41:16.764Z,19.99
2018-07-08T19:44:21.986Z,19.93
2018-07-08T19:47:26.416Z,19.86
2018-07-08T19:50:30.962Z,19.81
2018-07-08T19:53:35.337Z,19.70
2018-07-08T19:56:40.493Z,19.60
2018-07-08T19:59:45.680Z,19.50
2018-07-08T20:02:50.143Z,19.41
2018-07-08T20:05:54.637Z,19.27
2018-07-08T20:08:59.086Z,19.30
2018-07-08T20:12:03.386Z,19.25
2018-07-08T20:15:07.698Z,19.20
2018-07-08T20:18:12.224Z,19.16
2018-07-08T20:21:16.848Z,19.12
2018-07-08T20:24:20.978Z,19.02
2018-07-08T20:27:25.269Z,18.86
2018-07-08T20:30:29.652Z,18.85
2018-07-08T20:33:33.999Z,18.81
2018-07-08T20:36:38.533Z,18.78
2018-07-08T20:39:42.922Z,18.70
2018-07-08T20:42:47.291Z,18.66
2018-07-08T20:45:51.692Z,18.58
2018-07-08T20:48:56.729Z,18.45
2018-07-08T20:52:01.266Z,18.46
2018-07-08T20:55:05.577Z,18.40
2018-07-08T20:58:09.885Z,18.36
2018-07-08T21:01:14.156Z,18.31
2018-07-08T21:04:18.444Z,18.33
2018-07-08T21:07:22.761Z,18.32
2018-07-08T21:10:27.085Z,18.30
2018-07-08T21:13:31.656Z,18.27
2018-07-08T21:16:35.960Z,18.21
2018-07-08T21:19:40.431Z,18.21
2018-07-08T21:22:44.695Z,18.29
2018-07-08T21:25:48.996Z,18.25
2018-07-08T21:28:53.363Z,18.19
2018-07-08T21:31:57.632Z,18.07
2018-07-08T21:35:01.941Z,17.94
2018-07-08T21:38:06.817Z,17.96
2018-07-08T21:41:11.172Z,17.94
2018-07-08T21:44:15.993Z,17.92
2018-07-08T21:47:21.502Z,17.90
2018-07-08T21:50:25.785Z,17.73
2018-07-08T21:53:30.291Z,17.67
2018-07-08T21:56:34.599Z,17.55
2018-07-08T21:59:38.923Z,17.40
2018-07-08T22:02:45.940Z,17.33
2018-07-08T22:05:50.241Z,17.31
2018-07-08T22:08:54.755Z,17.24
2018-07-08T22:11:59.129Z,17.23
2018-07-08T22:15:03.482Z,17.18
2018-07-08T22:18:07.797Z,17.08
2018-07-08T22:21:12.649Z,17.07
2018-07-08T22:24:17.390Z,16.89
2018-07-08T22:27:24.745Z,16.79
2018-07-08T22:30:29.430Z,16.80
2018-07-08T22:33:33.924Z,16.69
2018-07-08T22:36:38.405Z,16.63
2018-07-08T22:39:42.725Z,16.43
2018-07-08T22:42:47.245Z,16.37
2018-07-08T22:45:51.800Z,16.29
2018-07-08T22:48:56.186Z,16.16
2018-07-08T22:52:00.749Z,16.11
2018-07-08T22:55:05.558Z,16.10
2018-07-08T22:58:09.867Z,16.04
2018-07-08T23:01:31.637Z,15.97
2018-07-08T23:04:35.918Z,15.90
2018-07-08T23:07:41.125Z,15.83
2018-07-08T23:10:45.424Z,15.68
2018-07-08T23:13:50.511Z,15.63
2018-07-08T23:16:54.896Z,15.58
2018-07-08T23:19:59.521Z,15.54
2018-07-08T23:23:03.646Z,15.45
2018-07-08T23:26:08.103Z,15.42
2018-07-08T23:29:12.456Z,15.40
2018-07-08T23:32:16.825Z,15.45
2018-07-08T23:35:21.195Z,15.36
2018-07-08T23:38:25.637Z,15.32
2018-07-08T23:41:30.282Z,15.30
2018-07-08T23:44:34.709Z,15.29
2018-07-08T23:47:39.048Z,15.24
2018-07-08T23:50:43.320Z,15.14
2018-07-08T23:53:48.525Z,15.06
2018-07-08T23:56:52.845Z,15.03
2018-07-08T23:59:57.204Z,15.01
